Time;durP1;ratioP1;P1;durP2;ratioP2;P2;SDS_P1;SDS_P2;PMS_P1;PMS_P2;Temp;Humidity;BMP_temperature;BMP_pressure;BME280_temperature;BME280_humidity;BME280_pressure;Samples;Min_cycle;Max_cycle;Signal;HPM_P1;HPM_P2
2021/06/11 00:01:55;;;;;;;1.45;1.45;;;23.20;62.40;;;;;;5045170;28;20067;-39
2021/06/11 00:04:21;;;;;;;1.27;1.27;;;23.20;62.10;;;;;;5039556;28;20028;-40
2021/06/11 00:06:46;;;;;;;1.45;1.45;;;23.20;62.20;;;;;;5038256;28;20084;-39
2021/06/11 00:09:14;;;;;;;1.27;1.27;;;23.20;63.20;;;;;;5044004;28;20128;-36
2021/06/11 00:11:46;;;;;;;1.30;1.30;;;23.30;62.10;;;;;;5042185;28;20036;-40
2021/06/11 00:14:12;;;;;;;1.67;1.67;;;23.20;62.30;;;;;;5038086;28;20144;-35
2021/06/11 00:16:37;;;;;;;1.52;1.52;;;23.20;62.50;;;;;;5036439;28;20368;-41
2021/06/11 00:19:03;;;;;;;1.58;1.48;;;23.10;62.70;;;;;;5035881;28;20036;-32
2021/06/11 00:21:29;;;;;;;1.60;1.60;;;23.00;62.80;;;;;;5035516;28;20041;-40
2021/06/11 00:23:54;;;;;;;1.70;1.60;;;23.00;63.10;;;;;;5042594;28;20075;-39
2021/06/11 00:26:20;;;;;;;1.52;1.52;;;23.00;62.70;;;;;;5025156;28;20467;-39
2021/06/11 00:28:46;;;;;;;1.90;1.80;;;22.90;63.20;;;;;;5041341;28;20033;-39
2021/06/11 00:31:12;;;;;;;1.50;1.50;;;22.90;63.30;;;;;;5049403;28;20021;-36
2021/06/11 00:33:37;;;;;;;1.80;1.70;;;22.90;63.00;;;;;;5041180;28;20044;-35
2021/06/11 00:36:03;;;;;;;1.60;1.60;;;22.90;63.20;;;;;;5046370;28;20025;-39
2021/06/11 00:38:31;;;;;;;1.70;1.63;;;22.80;63.40;;;;;;5045839;28;20372;-39
2021/06/11 00:40:57;;;;;;;1.63;1.63;;;22.80;63.20;;;;;;5044948;28;20450;-40
2021/06/11 00:43:22;;;;;;;1.63;1.52;;;22.80;63.20;;;;;;5048830;28;20033;-38
2021/06/11 00:45:48;;;;;;;1.70;1.70;;;22.70;63.40;;;;;;5052227;28;20407;-35
2021/06/11 00:48:13;;;;;;;1.95;1.85;;;22.70;63.50;;;;;;5045937;28;20150;-34
2021/06/11 00:50:39;;;;;;;1.92;1.83;;;22.80;63.20;;;;;;5041473;28;20407;-39
2021/06/11 00:53:08;;;;;;;1.80;1.70;;;22.90;62.60;;;;;;5037327;28;20210;-40
2021/06/11 00:55:34;;;;;;;1.30;1.30;;;22.80;63.00;;;;;;5048972;28;20487;-39
2021/06/11 00:57:59;;;;;;;1.75;1.65;;;22.80;63.10;;;;;;5048291;28;20029;-40
2021/06/11 01:00:25;;;;;;;1.40;1.40;;;22.70;63.20;;;;;;5054516;28;20041;-40
2021/06/11 01:02:50;;;;;;;1.40;1.40;;;22.70;64.10;;;;;;5044282;28;20031;-40
2021/06/11 01:05:16;;;;;;;1.17;1.17;;;22.70;63.50;;;;;;5044327;28;20041;-39
2021/06/11 01:07:43;;;;;;;1.65;1.52;;;22.80;63.30;;;;;;5020776;28;20021;-39
2021/06/11 01:10:10;;;;;;;1.58;1.58;;;22.90;62.60;;;;;;5041456;28;20059;-39
2021/06/11 01:12:35;;;;;;;1.38;1.30;;;22.90;62.70;;;;;;5052309;28;20495;-39
2021/06/11 01:15:05;;;;;;;1.67;1.60;;;22.90;62.90;;;;;;5049331;28;20029;-40
2021/06/11 01:17:34;;;;;;;1.38;1.38;;;22.90;62.80;;;;;;5024271;28;20450;-39
2021/06/11 01:20:00;;;;;;;1.73;1.63;;;22.90;63.00;;;;;;5058699;28;20495;-39
2021/06/11 01:22:43;;;;;;;1.50;1.50;;;22.90;63.10;;;;;;5048007;28;20162;-40
2021/06/11 01:25:14;;;;;;;2.10;2.00;;;22.90;62.80;;;;;;5048081;28;20042;-39
2021/06/11 01:27:41;;;;;;;1.48;1.48;;;22.80;63.20;;;;;;5036706;28;20022;-40
2021/06/11 01:30:09;;;;;;;2.25;1.35;;;22.70;63.50;;;;;;5057585;28;20068;-39
2021/06/11 01:32:36;;;;;;;1.55;1.55;;;22.80;63.10;;;;;;5047514;28;20017;-39
2021/06/11 01:35:04;;;;;;;1.73;1.67;;;22.90;63.00;;;;;;5059582;28;20037;-39
2021/06/11 01:37:32;;;;;;;1.52;1.52;;;22.80;63.20;;;;;;5062574;28;20498;-39
2021/06/11 01:39:59;;;;;;;1.40;1.40;;;22.80;63.20;;;;;;5031384;28;20519;-39
2021/06/11 01:42:25;;;;;;;1.40;1.40;;;22.80;63.20;;;;;;5048973;28;20486;-40
2021/06/11 01:44:50;;;;;;;1.52;1.52;;;22.70;63.40;;;;;;5054502;28;20091;-40
2021/06/11 01:47:16;;;;;;;1.80;1.70;;;22.90;62.90;;;;;;5053853;28;20026;-41
2021/06/11 01:49:45;;;;;;;1.50;1.50;;;22.80;63.30;;;;;;5057262;28;20022;-40
2021/06/11 01:52:11;;;;;;;1.42;1.40;;;22.70;63.50;;;;;;5063867;28;20033;-41
2021/06/11 01:54:37;;;;;;;1.45;1.38;;;22.70;63.50;;;;;;5057052;28;20035;-41
2021/06/11 01:57:03;;;;;;;1.73;1.63;;;22.70;63.70;;;;;;5038796;28;20029;-40
2021/06/11 01:59:29;;;;;;;1.85;1.75;;;22.90;62.90;;;;;;5036391;28;20568;-41
2021/06/11 02:01:55;;;;;;;1.38;1.30;;;22.80;64.00;;;;;;5033540;28;20029;-41
2021/06/11 02:04:20;;;;;;;1.60;1.50;;;22.90;63.00;;;;;;5062554;28;20487;-42
2021/06/11 02:06:46;;;;;;;1.42;1.33;;;22.90;63.10;;;;;;5051610;28;20029;-42
2021/06/11 02:09:12;;;;;;;1.38;1.38;;;22.90;62.90;;;;;;5042890;28;20037;-40
2021/06/11 02:11:41;;;;;;;1.48;1.40;;;22.90;62.90;;;;;;5056470;28;20480;-41
2021/06/11 02:14:07;;;;;;;1.40;1.40;;;22.90;62.80;;;;;;5051055;28;20021;-41
2021/06/11 02:16:32;;;;;;;1.70;1.60;;;23.10;62.30;;;;;;5032637;28;20032;-41
2021/06/11 02:19:01;;;;;;;1.48;1.48;;;23.00;62.50;;;;;;5059961;28;20025;-41
2021/06/11 02:21:28;;;;;;;1.55;1.55;;;23.00;62.50;;;;;;5043547;28;20479;-41
2021/06/11 02:23:53;;;;;;;1.45;1.45;;;23.10;63.20;;;;;;5050169;28;20033;-41
2021/06/11 02:26:19;;;;;;;1.50;1.50;;;23.20;62.10;;;;;;5040721;28;20055;-41
2021/06/11 02:28:45;;;;;;;1.30;1.30;;;23.10;62.30;;;;;;5060305;28;20021;-41
2021/06/11 02:31:11;;;;;;;1.15;1.13;;;22.90;62.80;;;;;;5047707;28;20029;-42
2021/06/11 02:33:37;;;;;;;1.60;1.50;;;22.90;62.80;;;;;;5050030;28;20108;-42
2021/06/11 02:36:03;;;;;;;1.13;1.13;;;22.90;62.80;;;;;;5049170;28;20117;-41
2021/06/11 02:38:29;;;;;;;1.27;1.27;;;22.90;63.00;;;;;;5034674;28;20112;-40
2021/06/11 02:40:56;;;;;;;2.17;1.23;;;22.90;63.00;;;;;;5039490;28;20112;-41
2021/06/11 02:43:22;;;;;;;1.75;1.65;;;22.90;62.70;;;;;;5032344;28;20041;-40
2021/06/11 02:46:13;;;;;;;1.10;1.10;;;22.90;63.00;;;;;;5062543;28;20079;-40
2021/06/11 02:48:46;;;;;;;1.25;1.25;;;23.00;62.90;;;;;;5024526;28;20514;-39
2021/06/11 02:51:22;;;;;;;1.42;1.40;;;23.10;62.20;;;;;;5042881;28;20025;-40
2021/06/11 02:53:47;;;;;;;1.35;1.17;;;23.10;62.30;;;;;;5053463;28;20160;-40
2021/06/11 02:56:44;;;;;;;1.30;1.30;;;23.20;62.10;;;;;;5050828;28;20092;-39
2021/06/11 02:59:15;;;;;;;1.40;1.30;;;23.20;62.20;;;;;;5039687;28;20052;-39
2021/06/11 03:01:45;;;;;;;1.48;1.30;;;23.20;62.10;;;;;;5040193;28;20028;-41
2021/06/11 03:04:10;;;;;;;1.52;1.48;;;23.20;62.00;;;;;;5034394;28;20025;-40
2021/06/11 03:06:36;;;;;;;1.23;1.20;;;23.10;62.10;;;;;;5048394;28;20029;-40
2021/06/11 03:09:07;;;;;;;1.50;1.50;;;23.00;62.50;;;;;;5062421;28;20519;-40
2021/06/11 03:11:38;;;;;;;1.77;1.63;;;23.00;63.40;;;;;;5047365;28;20028;-34
2021/06/11 03:14:03;;;;;;;1.50;1.50;;;22.80;63.00;;;;;;5062085;28;20523;-40
2021/06/11 03:16:29;;;;;;;1.42;1.42;;;22.80;63.20;;;;;;5035829;28;20100;-39
2021/06/11 03:18:56;;;;;;;1.60;1.50;;;22.80;63.00;;;;;;5051736;28;20399;-39
2021/06/11 03:21:42;;;;;;;1.70;1.60;;;22.90;63.00;;;;;;5035546;28;20088;-40
2021/06/11 03:24:29;;;;;;;1.45;1.45;;;23.00;62.80;;;;;;5027277;28;20399;-40
2021/06/11 03:27:03;;;;;;;1.52;1.48;;;22.90;62.80;;;;;;5038267;28;20484;-39
2021/06/11 03:29:34;;;;;;;2.05;1.60;;;23.00;62.60;;;;;;5037917;28;20029;-40
2021/06/11 03:32:03;;;;;;;1.70;1.60;;;22.90;62.70;;;;;;5042285;28;20383;-39
2021/06/11 03:34:31;;;;;;;1.33;1.23;;;22.90;62.80;;;;;;5063288;28;20048;-40
2021/06/11 03:36:57;;;;;;;1.50;1.50;;;23.00;62.80;;;;;;5056019;28;20144;-40
2021/06/11 03:39:34;;;;;;;1.60;1.50;;;23.00;62.50;;;;;;5046174;28;20049;-40
2021/06/11 03:41:59;;;;;;;1.65;1.55;;;23.00;62.80;;;;;;5046136;28;20029;-39
2021/06/11 03:44:26;;;;;;;1.60;1.50;;;23.00;62.80;;;;;;5044750;28;20033;-40
2021/06/11 03:46:51;;;;;;;1.33;1.23;;;22.90;63.50;;;;;;5050524;28;20022;-42
2021/06/11 03:49:18;;;;;;;1.40;1.30;;;23.00;63.40;;;;;;5048123;28;20033;-40
2021/06/11 03:51:44;;;;;;;1.45;1.35;;;23.10;63.00;;;;;;5038574;28;20021;-39
2021/06/11 03:54:11;;;;;;;1.20;1.20;;;23.10;62.80;;;;;;5060883;28;20032;-40
2021/06/11 03:56:37;;;;;;;1.30;1.30;;;22.90;63.30;;;;;;5043295;28;20087;-42
2021/06/11 03:59:03;;;;;;;1.30;1.30;;;22.90;64.50;;;;;;5036929;28;20029;-40
2021/06/11 04:01:31;;;;;;;1.10;1.10;;;22.90;63.40;;;;;;5042115;28;20383;-40
2021/06/11 04:03:56;;;;;;;1.70;1.30;;;22.90;63.40;;;;;;5038843;28;20036;-40
2021/06/11 04:06:32;;;;;;;1.40;1.30;;;22.90;63.20;;;;;;5042708;28;20029;-42
2021/06/11 04:09:01;;;;;;;1.02;1.02;;;22.90;63.00;;;;;;5041357;28;20046;-40
2021/06/11 04:11:27;;;;;;;1.02;1.02;;;22.80;63.40;;;;;;5039754;28;20030;-40
2021/06/11 04:13:58;;;;;;;0.93;0.93;;;22.80;63.20;;;;;;5021929;28;20412;-42
2021/06/11 04:16:33;;;;;;;1.75;1.08;;;22.80;63.20;;;;;;5050252;28;20028;-40
2021/06/11 04:19:00;;;;;;;0.80;0.80;;;23.00;62.70;;;;;;5062571;28;20022;-41
2021/06/11 04:21:25;;;;;;;1.00;1.00;;;22.90;62.90;;;;;;5046324;28;20119;-40
2021/06/11 04:23:53;;;;;;;1.10;1.10;;;22.80;63.20;;;;;;5041027;28;20547;-40
2021/06/11 04:26:21;;;;;;;0.80;0.80;;;22.80;63.20;;;;;;5037696;28;20091;-40
2021/06/11 04:28:46;;;;;;;1.48;0.95;;;22.90;63.00;;;;;;5052682;28;20013;-40
2021/06/11 04:31:12;;;;;;;1.15;1.05;;;22.80;63.00;;;;;;5032801;28;20104;-42
2021/06/11 04:33:37;;;;;;;1.02;1.02;;;22.90;63.00;;;;;;5062455;28;20025;-40
2021/06/11 04:36:03;;;;;;;0.90;0.90;;;22.80;63.30;;;;;;5014419;28;20057;-40
2021/06/11 04:38:29;;;;;;;0.73;0.73;;;22.80;63.20;;;;;;5045492;28;20051;-41
2021/06/11 04:40:55;;;;;;;0.70;0.70;;;22.80;63.00;;;;;;5045454;28;20041;-40
2021/06/11 04:43:24;;;;;;;0.80;0.80;;;22.90;63.00;;;;;;5049301;28;20013;-38
2021/06/11 04:45:49;;;;;;;0.90;0.90;;;22.80;63.10;;;;;;5043731;28;20089;-40
2021/06/11 04:48:15;;;;;;;1.00;1.00;;;23.00;62.60;;;;;;5046804;28;20025;-41
2021/06/11 04:50:41;;;;;;;0.73;0.73;;;22.90;62.70;;;;;;5043377;28;20045;-40
2021/06/11 04:53:06;;;;;;;0.70;0.70;;;22.80;62.90;;;;;;5042624;28;20511;-42
2021/06/11 04:55:32;;;;;;;0.88;0.88;;;22.80;63.10;;;;;;5043795;28;20029;-40
2021/06/11 04:57:57;;;;;;;0.80;0.80;;;22.80;63.00;;;;;;5048071;28;20040;-40
2021/06/11 05:00:24;;;;;;;0.80;0.80;;;22.90;62.70;;;;;;5049737;28;20040;-41
2021/06/11 05:02:49;;;;;;;0.80;0.80;;;22.80;62.70;;;;;;5046516;28;20048;-45
2021/06/11 05:05:15;;;;;;;0.65;0.65;;;22.80;62.90;;;;;;5045816;28;20041;-43
2021/06/11 05:07:41;;;;;;;0.82;0.82;;;22.80;62.90;;;;;;5035626;28;20021;-38
2021/06/11 05:10:07;;;;;;;0.60;0.60;;;22.80;62.80;;;;;;5042711;28;20131;-42
2021/06/11 05:12:34;;;;;;;0.65;0.65;;;22.80;62.70;;;;;;5046099;28;20032;-43
2021/06/11 05:15:01;;;;;;;1.40;0.82;;;22.80;62.70;;;;;;5038829;28;20486;-43
2021/06/11 05:17:27;;;;;;;1.88;0.70;;;22.80;62.70;;;;;;5046519;28;20483;-41
2021/06/11 05:19:52;;;;;;;1.27;0.80;;;22.80;62.60;;;;;;5044071;28;20025;-42
2021/06/11 05:22:19;;;;;;;0.80;0.80;;;22.80;62.90;;;;;;5047574;28;20437;-42
2021/06/11 05:24:44;;;;;;;1.88;0.77;;;22.80;63.10;;;;;;5036606;28;20030;-42
2021/06/11 05:27:10;;;;;;;2.72;0.90;;;22.80;62.90;;;;;;5046267;28;20383;-41
2021/06/11 05:29:35;;;;;;;1.35;0.63;;;22.90;62.80;;;;;;5047347;28;20098;-41
2021/06/11 05:32:01;;;;;;;0.77;0.75;;;22.90;62.60;;;;;;5045647;28;20025;-43
2021/06/11 05:34:26;;;;;;;1.33;0.80;;;22.80;63.10;;;;;;5033299;28;20503;-42
2021/06/11 05:36:52;;;;;;;0.70;0.70;;;22.70;63.20;;;;;;5043138;28;20056;-41
2021/06/11 05:39:18;;;;;;;1.33;0.60;;;22.70;63.30;;;;;;5038315;28;20037;-42
2021/06/11 05:41:43;;;;;;;0.80;0.80;;;22.70;63.40;;;;;;5042469;28;20021;-42
2021/06/11 05:44:09;;;;;;;0.98;0.60;;;22.70;63.10;;;;;;5047539;28;20510;-41
2021/06/11 05:46:35;;;;;;;1.00;0.80;;;22.90;63.00;;;;;;5047592;28;20034;-39
2021/06/11 05:49:00;;;;;;;3.33;0.70;;;22.80;63.00;;;;;;5033718;28;20026;-39
2021/06/11 05:51:26;;;;;;;3.75;0.60;;;22.80;63.20;;;;;;5036672;28;20079;-39
2021/06/11 05:53:52;;;;;;;0.75;0.75;;;23.00;62.50;;;;;;5020766;28;20040;-40
2021/06/11 05:56:17;;;;;;;6.22;0.70;;;23.00;62.30;;;;;;5036413;28;20442;-39
2021/06/11 05:58:43;;;;;;;2.85;0.90;;;22.80;62.50;;;;;;5035165;28;20017;-39
2021/06/11 06:01:08;;;;;;;1.00;0.90;;;22.80;62.70;;;;;;5032813;28;20038;-39
2021/06/11 06:03:34;;;;;;;0.90;0.90;;;22.50;63.50;;;;;;5036405;28;20480;-38
2021/06/11 06:06:00;;;;;;;1.15;0.90;;;22.60;63.30;;;;;;5041896;28;20040;-41
2021/06/11 06:08:25;;;;;;;0.50;0.50;;;22.60;63.10;;;;;;5041548;28;20034;-39
2021/06/11 06:10:51;;;;;;;0.77;0.77;;;22.60;62.80;;;;;;5032899;28;20048;-37
2021/06/11 06:13:16;;;;;;;0.77;0.77;;;22.60;63.70;;;;;;5048016;28;20398;-40
2021/06/11 06:15:42;;;;;;;0.55;0.55;;;22.90;62.00;;;;;;5036314;28;20163;-41
2021/06/11 06:18:08;;;;;;;0.85;0.85;;;23.00;61.50;;;;;;5050764;28;20032;-42
2021/06/11 06:20:34;;;;;;;0.60;0.60;;;23.20;60.70;;;;;;5035982;28;20041;-39
2021/06/11 06:23:00;;;;;;;1.30;0.90;;;23.10;61.10;;;;;;5036854;28;20502;-42
2021/06/11 06:25:25;;;;;;;0.60;0.60;;;22.90;61.30;;;;;;5048145;28;20052;-40
2021/06/11 06:27:54;;;;;;;1.08;0.70;;;23.00;61.10;;;;;;5047098;28;20108;-42
2021/06/11 06:30:22;;;;;;;0.47;0.47;;;23.20;60.60;;;;;;5052000;28;20076;-40
2021/06/11 06:32:47;;;;;;;0.98;0.88;;;23.10;60.60;;;;;;5038495;28;20029;-40
2021/06/11 06:35:13;;;;;;;0.60;0.60;;;23.10;60.60;;;;;;5040103;28;20030;-40
2021/06/11 06:37:39;;;;;;;0.90;0.90;;;23.10;60.70;;;;;;5037992;28;20032;-40
2021/06/11 06:40:07;;;;;;;1.92;0.73;;;23.10;60.80;;;;;;5036677;28;20083;-40
2021/06/11 06:42:32;;;;;;;0.60;0.60;;;23.10;60.90;;;;;;5040046;28;20022;-40
2021/06/11 06:44:58;;;;;;;0.80;0.73;;;23.00;60.90;;;;;;5045451;28;20044;-40
2021/06/11 06:47:23;;;;;;;0.55;0.55;;;23.00;61.00;;;;;;5046416;28;20036;-41
2021/06/11 06:49:49;;;;;;;0.95;0.80;;;23.00;60.90;;;;;;5020017;28;20022;-40
2021/06/11 06:52:16;;;;;;;0.57;0.57;;;22.90;62.60;;;;;;5054661;28;20392;-40
2021/06/11 06:54:43;;;;;;;0.60;0.50;;;22.80;61.70;;;;;;5053864;28;20045;-40
2021/06/11 06:57:09;;;;;;;1.17;0.80;;;22.60;62.20;;;;;;5050978;28;20032;-41
2021/06/11 06:59:35;;;;;;;0.60;0.60;;;22.40;63.00;;;;;;5046957;28;20037;-40
2021/06/11 07:02:00;;;;;;;0.45;0.45;;;22.40;63.10;;;;;;5050786;28;20045;-40
2021/06/11 07:04:29;;;;;;;0.60;0.40;;;22.50;63.00;;;;;;5051312;28;20036;-39
2021/06/11 07:06:55;;;;;;;0.43;0.43;;;22.40;63.40;;;;;;5052880;28;20116;-36
2021/06/11 07:09:20;;;;;;;0.40;0.40;;;22.40;63.20;;;;;;5051330;28;20119;-40
2021/06/11 07:11:48;;;;;;;0.47;0.40;;;22.60;62.70;;;;;;5050140;28;20041;-41
2021/06/11 07:14:15;;;;;;;2.28;0.50;;;22.60;62.70;;;;;;5054541;28;20394;-39
2021/06/11 07:16:41;;;;;;;0.60;0.40;;;22.70;62.60;;;;;;5037636;28;20174;-41
2021/06/11 07:19:07;;;;;;;0.45;0.45;;;22.50;63.10;;;;;;5051020;28;20025;-42
2021/06/11 07:21:33;;;;;;;1.77;0.65;;;22.40;63.10;;;;;;5053967;28;20051;-39
2021/06/11 07:23:58;;;;;;;0.85;0.55;;;22.50;63.10;;;;;;5048916;28;20021;-40
2021/06/11 07:26:24;;;;;;;0.40;0.40;;;22.70;62.90;;;;;;5052544;28;20414;-41
2021/06/11 07:28:49;;;;;;;0.50;0.50;;;22.70;63.00;;;;;;5049945;28;20064;-41
2021/06/11 07:31:15;;;;;;;0.50;0.50;;;22.60;62.90;;;;;;5051822;28;20033;-41
2021/06/11 07:33:41;;;;;;;0.50;0.50;;;22.60;63.00;;;;;;5057793;28;20021;-41
2021/06/11 07:36:07;;;;;;;0.80;0.80;;;22.40;63.50;;;;;;5048196;28;20564;-40
2021/06/11 07:38:32;;;;;;;0.60;0.60;;;22.40;63.30;;;;;;5051662;28;20044;-40
2021/06/11 07:40:58;;;;;;;1.58;0.90;;;22.60;62.80;;;;;;5049155;28;20033;-41
2021/06/11 07:43:24;;;;;;;1.17;0.80;;;22.60;62.40;;;;;;5051512;28;20044;-41
2021/06/11 07:45:49;;;;;;;0.68;0.68;;;22.50;62.80;;;;;;5057502;28;20040;-40
2021/06/11 07:48:15;;;;;;;0.60;0.60;;;22.60;62.80;;;;;;5053022;28;20483;-40
2021/06/11 07:50:41;;;;;;;0.68;0.68;;;22.60;62.70;;;;;;5048995;28;20660;-46
2021/06/11 07:53:06;;;;;;;0.80;0.80;;;22.60;63.10;;;;;;5050947;28;20017;-40
2021/06/11 07:55:32;;;;;;;0.70;0.70;;;22.50;63.60;;;;;;5050624;28;20380;-40
2021/06/11 07:57:59;;;;;;;0.90;0.90;;;22.70;63.20;;;;;;5053662;28;20021;-41
2021/06/11 08:00:25;;;;;;;0.65;0.65;;;22.70;62.90;;;;;;5050627;28;20072;-39
2021/06/11 08:02:57;;;;;;;0.55;0.55;;;22.70;63.00;;;;;;5052371;28;20033;-37
2021/06/11 08:05:24;;;;;;;1.05;0.80;;;22.70;63.40;;;;;;5045799;28;20025;-41
2021/06/11 08:07:50;;;;;;;1.38;0.60;;;22.80;63.30;;;;;;5052070;28;20523;-39
2021/06/11 08:10:15;;;;;;;0.50;0.50;;;22.70;64.40;;;;;;5050854;28;20105;-41
2021/06/11 08:12:41;;;;;;;2.20;0.70;;;22.80;63.60;;;;;;5054220;28;20018;-39
2021/06/11 08:15:07;;;;;;;0.80;0.80;;;22.90;63.40;;;;;;5048630;28;20445;-42
2021/06/11 08:17:32;;;;;;;0.65;0.63;;;22.90;63.40;;;;;;5047540;28;20053;-41
2021/06/11 08:19:58;;;;;;;0.75;0.75;;;22.90;63.10;;;;;;5048661;28;20033;-41
2021/06/11 08:22:23;;;;;;;0.65;0.65;;;22.70;63.80;;;;;;5053901;28;20395;-41
2021/06/11 08:24:49;;;;;;;0.50;0.50;;;22.60;64.40;;;;;;5052219;28;20025;-41
2021/06/11 08:27:14;;;;;;;0.90;0.70;;;22.70;63.90;;;;;;5054021;28;20017;-41
2021/06/11 08:29:41;;;;;;;1.13;0.80;;;22.70;64.30;;;;;;5052270;28;20025;-42
2021/06/11 08:32:06;;;;;;;0.98;0.68;;;22.80;63.90;;;;;;5050059;28;20496;-43
2021/06/11 08:34:36;;;;;;;1.75;0.70;;;22.90;63.70;;;;;;5053413;28;20032;-41
2021/06/11 08:37:05;;;;;;;0.73;0.70;;;22.90;64.00;;;;;;5049886;28;20021;-41
2021/06/11 08:39:31;;;;;;;1.20;0.80;;;22.80;63.90;;;;;;5055922;28;20140;-41
2021/06/11 08:41:56;;;;;;;1.30;0.80;;;22.90;63.90;;;;;;5049200;28;20163;-41
2021/06/11 08:44:22;;;;;;;0.70;0.70;;;22.90;63.90;;;;;;5048386;28;20021;-42
2021/06/11 08:46:47;;;;;;;1.80;0.80;;;22.90;64.20;;;;;;5026426;28;20033;-41
2021/06/11 08:49:13;;;;;;;2.05;0.90;;;22.80;64.60;;;;;;5049204;28;20040;-41
2021/06/11 08:51:39;;;;;;;0.80;0.80;;;22.90;64.20;;;;;;5053728;28;20526;-41
2021/06/11 08:54:04;;;;;;;1.00;0.90;;;22.90;64.60;;;;;;5048792;28;20041;-41
2021/06/11 08:56:30;;;;;;;2.28;0.98;;;22.90;64.60;;;;;;5049601;28;20036;-41
2021/06/11 08:58:56;;;;;;;0.70;0.70;;;22.90;64.50;;;;;;5048888;28;20507;-41
2021/06/11 09:01:21;;;;;;;0.98;0.98;;;22.80;65.10;;;;;;5050068;28;20065;-42
2021/06/11 09:03:48;;;;;;;0.60;0.60;;;22.90;64.70;;;;;;5052104;28;20500;-40
2021/06/11 09:06:14;;;;;;;0.80;0.80;;;22.90;65.00;;;;;;5047937;28;20112;-41
2021/06/11 09:09:03;;;;;;;1.00;0.98;;;23.00;64.80;;;;;;5048696;28;20089;-41
2021/06/11 09:11:30;;;;;;;0.90;0.90;;;22.90;65.50;;;;;;5046792;28;20566;-41
2021/06/11 09:14:12;;;;;;;1.55;1.00;;;22.90;65.70;;;;;;5046979;28;20028;-41
2021/06/11 09:16:48;;;;;;;1.02;1.00;;;22.90;65.50;;;;;;5049494;28;20035;-42
2021/06/11 09:19:20;;;;;;;1.23;1.15;;;23.00;65.20;;;;;;5047523;28;20033;-42
2021/06/11 09:21:50;;;;;;;1.65;1.10;;;23.00;65.50;;;;;;5053019;28;20121;-41
2021/06/11 09:24:26;;;;;;;1.30;1.30;;;23.00;65.10;;;;;;5048717;28;20396;-43
2021/06/11 09:26:58;;;;;;;1.40;1.30;;;23.10;65.90;;;;;;5050782;28;20498;-41
2021/06/11 09:29:29;;;;;;;1.15;1.15;;;23.20;65.00;;;;;;5050903;28;20080;-40
2021/06/11 09:32:17;;;;;;;3.92;1.23;;;23.00;65.90;;;;;;5050239;28;20021;-38
2021/06/11 09:34:47;;;;;;;1.40;1.40;;;22.60;66.60;;;;;;5045960;28;20017;-41
2021/06/11 09:37:17;;;;;;;1.23;1.23;;;22.60;66.60;;;;;;5033091;28;20040;-41
2021/06/11 09:39:43;;;;;;;0.90;0.90;;;22.60;66.70;;;;;;5047676;28;20400;-41
2021/06/11 09:42:10;;;;;;;1.25;1.20;;;22.60;66.50;;;;;;5044864;28;20039;-41
2021/06/11 09:44:36;;;;;;;3.75;1.20;;;22.60;66.60;;;;;;5041443;28;20026;-38
2021/06/11 09:47:01;;;;;;;1.25;1.20;;;22.60;66.30;;;;;;5036545;28;20025;-40
2021/06/11 09:49:29;;;;;;;3.00;1.23;;;22.70;66.10;;;;;;5048565;28;20036;-41
2021/06/11 09:52:05;;;;;;;1.30;1.20;;;22.70;65.90;;;;;;5047209;28;20115;-41
2021/06/11 09:54:30;;;;;;;2.25;1.23;;;22.70;65.70;;;;;;5051597;28;20021;-39
2021/06/11 09:56:56;;;;;;;1.13;1.13;;;22.80;65.50;;;;;;5035360;28;20044;-43
2021/06/11 09:59:42;;;;;;;1.20;1.00;;;22.90;65.20;;;;;;5035041;28;20119;-41
2021/06/11 10:02:19;;;;;;;0.88;0.88;;;22.90;64.70;;;;;;5036320;28;20025;-41
2021/06/11 10:04:45;;;;;;;0.95;0.95;;;23.00;64.40;;;;;;5035491;28;20033;-42
2021/06/11 10:07:11;;;;;;;1.20;1.10;;;23.10;64.00;;;;;;5031901;28;20487;-41
2021/06/11 10:09:37;;;;;;;1.83;0.95;;;23.20;64.00;;;;;;5047249;28;20041;-38
2021/06/11 10:12:03;;;;;;;1.10;1.10;;;23.20;63.40;;;;;;5037836;28;20457;-41
2021/06/11 10:14:29;;;;;;;1.50;1.02;;;23.30;63.10;;;;;;5035434;28;20025;-36
2021/06/11 10:16:55;;;;;;;0.90;0.90;;;23.30;63.20;;;;;;5035331;28;20025;-37
2021/06/11 10:19:21;;;;;;;1.20;1.20;;;23.40;62.90;;;;;;5031532;28;20474;-41
2021/06/11 10:21:46;;;;;;;1.00;1.00;;;23.40;63.50;;;;;;5051467;28;20083;-40
2021/06/11 10:24:14;;;;;;;1.02;1.02;;;23.40;62.60;;;;;;5050431;28;20030;-41
2021/06/11 10:26:41;;;;;;;1.00;1.00;;;23.40;62.50;;;;;;5053848;28;20033;-41
2021/06/11 10:29:06;;;;;;;1.13;1.13;;;23.50;62.30;;;;;;5044766;28;20029;-42
2021/06/11 10:31:36;;;;;;;1.30;1.20;;;23.70;61.70;;;;;;5033132;28;20029;-41
2021/06/11 10:34:03;;;;;;;1.00;1.00;;;23.70;61.40;;;;;;5062376;28;20029;-41
2021/06/11 10:36:30;;;;;;;1.00;1.00;;;23.80;61.00;;;;;;5051004;28;20068;-42
2021/06/11 10:39:20;;;;;;;1.30;1.20;;;23.90;61.10;;;;;;5035649;28;20055;-31
2021/06/11 10:42:06;;;;;;;1.40;1.30;;;24.00;60.20;;;;;;5031605;28;20114;-40
2021/06/11 10:44:45;;;;;;;1.95;1.10;;;24.00;60.50;;;;;;5037974;28;20034;-38
2021/06/11 10:47:17;;;;;;;1.13;1.13;;;24.00;60.70;;;;;;5032151;28;20410;-41
2021/06/11 10:50:01;;;;;;;2.15;0.93;;;23.90;60.80;;;;;;5030422;28;20029;-37
2021/06/11 10:52:47;;;;;;;1.13;1.00;;;24.00;60.60;;;;;;5028879;28;20052;-44
2021/06/11 10:55:23;;;;;;;1.15;1.15;;;23.90;60.80;;;;;;5028203;28;20037;-42
2021/06/11 10:57:52;;;;;;;1.00;1.00;;;23.90;60.70;;;;;;5043421;28;20033;-41
2021/06/11 11:00:23;;;;;;;1.10;1.10;;;24.00;60.60;;;;;;5041414;28;20045;-41
2021/06/11 11:02:50;;;;;;;0.90;0.90;;;23.90;60.70;;;;;;5035625;28;20111;-41
2021/06/11 11:05:26;;;;;;;1.85;1.13;;;24.00;60.50;;;;;;5046796;28;20044;-39
2021/06/11 11:07:51;;;;;;;1.00;1.00;;;24.00;60.20;;;;;;5031683;28;20171;-43
2021/06/11 11:10:47;;;;;;;1.00;1.00;;;24.00;60.10;;;;;;5039615;28;20049;-34
2021/06/11 11:13:13;;;;;;;1.00;1.00;;;24.00;60.20;;;;;;4683091;28;10000457;-42
2021/06/11 11:15:47;;;;;;;0.93;0.88;;;24.00;60.30;;;;;;5032711;28;20487;-39
2021/06/11 11:18:15;;;;;;;1.40;1.30;;;23.90;60.60;;;;;;5061028;28;20032;-39
2021/06/11 11:20:41;;;;;;;0.70;0.70;;;24.00;60.20;;;;;;5064084;28;20044;-40
2021/06/11 11:23:08;;;;;;;0.80;0.80;;;24.10;60.10;;;;;;5068824;28;20024;-41
2021/06/11 11:25:34;;;;;;;1.00;1.00;;;24.00;60.30;;;;;;5061184;28;20035;-42
2021/06/11 11:28:00;;;;;;;54.15;14.75;;;24.10;59.90;;;;;;5069144;28;20021;-41
2021/06/11 11:30:27;;;;;;;48.00;12.65;;;24.00;60.50;;;;;;5055786;28;20040;-41
2021/06/11 11:32:56;;;;;;;49.55;13.88;;;24.00;60.50;;;;;;5060651;28;20035;-44
2021/06/11 11:35:23;;;;;;;57.90;13.77;;;24.00;60.20;;;;;;5063780;28;20119;-42
2021/06/11 11:37:51;;;;;;;46.83;12.73;;;24.10;60.20;;;;;;5064863;28;20055;-41
2021/06/11 11:40:17;;;;;;;87.18;23.67;;;24.00;60.20;;;;;;5066194;28;20127;-41
2021/06/11 11:42:42;;;;;;;55.35;15.00;;;24.10;60.10;;;;;;5033178;28;20044;-41
2021/06/11 11:45:08;;;;;;;61.45;17.35;;;24.10;60.10;;;;;;5040461;28;20088;-42
2021/06/11 11:47:34;;;;;;;52.35;15.05;;;24.10;60.10;;;;;;5020336;28;20494;-43
2021/06/11 11:49:59;;;;;;;58.90;16.10;;;24.00;60.30;;;;;;5025056;28;20025;-42
2021/06/11 11:52:25;;;;;;;64.68;15.98;;;24.00;60.30;;;;;;5010871;28;20602;-42
2021/06/11 11:54:51;;;;;;;48.25;14.32;;;24.00;60.50;;;;;;5028607;28;20036;-43
2021/06/11 11:57:16;;;;;;;49.67;14.35;;;24.00;60.50;;;;;;5020753;28;20083;-42
2021/06/11 11:59:42;;;;;;;55.72;15.32;;;24.00;60.30;;;;;;5025535;28;20451;-37
2021/06/11 12:02:08;;;;;;;53.10;16.13;;;24.00;60.60;;;;;;5024346;28;20029;-41
2021/06/11 12:04:33;;;;;;;51.65;15.15;;;24.00;60.50;;;;;;5016457;28;20021;-37
2021/06/11 12:06:59;;;;;;;54.20;14.73;;;23.90;60.80;;;;;;5022716;28;20033;-44
2021/06/11 12:09:24;;;;;;;45.97;14.82;;;23.90;60.90;;;;;;5026094;28;20084;-38
2021/06/11 12:11:50;;;;;;;42.10;14.85;;;23.90;61.90;;;;;;5044472;28;20025;-41
2021/06/11 12:14:16;;;;;;;46.25;13.57;;;23.90;61.20;;;;;;5041789;28;20329;-41
2021/06/11 12:16:41;;;;;;;45.58;14.07;;;24.00;60.90;;;;;;5031462;28;20044;-42
2021/06/11 12:19:07;;;;;;;48.25;14.63;;;23.90;61.10;;;;;;5045968;28;20031;-38
2021/06/11 12:21:32;;;;;;;49.42;14.15;;;24.10;60.90;;;;;;5034203;28;20670;-42
2021/06/11 12:23:58;;;;;;;48.28;13.98;;;24.20;60.70;;;;;;5034593;28;20032;-40
2021/06/11 12:26:24;;;;;;;33.13;12.07;;;24.20;60.60;;;;;;5034980;28;20038;-40
2021/06/11 12:28:49;;;;;;;37.55;13.10;;;24.20;60.60;;;;;;5044374;28;20021;-37
2021/06/11 12:31:15;;;;;;;38.05;12.63;;;24.20;60.80;;;;;;5029675;28;20025;-42
2021/06/11 12:33:41;;;;;;;43.35;13.05;;;24.20;60.80;;;;;;5047818;28;20028;-41
2021/06/11 12:36:07;;;;;;;37.65;12.93;;;24.10;60.90;;;;;;5038402;28;20040;-40
2021/06/11 12:38:33;;;;;;;41.58;13.02;;;24.10;60.90;;;;;;5044484;28;20021;-36
2021/06/11 12:41:00;;;;;;;44.33;13.32;;;24.20;60.70;;;;;;5047735;28;20039;-41
2021/06/11 12:44:14;;;;;;;37.55;12.40;;;24.40;60.30;;;;;;5033211;28;20021;-39
2021/06/11 12:46:15;;;;;;;34.20;12.30;;;24.30;60.20;;;;;;5048418;28;20056;-42
2021/06/11 12:48:40;;;;;;;36.08;12.60;;;24.40;60.10;;;;;;5052664;28;20119;-37